[source: ADDS]
METAR
EDVE 080520Z 34003KT 9999 FEW020 M01/M01 Q1021

EDDV 080520Z VRB01KT 6000 0400SE R27R/P2000N R27L/P2000N BCFG NSC M03/M04 Q1022 TEMPO 1200

TAF EDDV 080500Z 0806/0906 03003KT CAVOK PROB40 TEMPO 0806/0807 0500 FZFG BECMG 0809/0811 13005KT ETHS 080445Z 35001KT 0050 FZFG FEW230 M03/M03 Q1021 RED

ETHC 080420Z 32002KT 9999 MIFG FEW300 M02/M03 Q1021 BLU+

TAF
TAF EDDV 080500Z 0806/0906 03003KT CAVOK PROB40 TEMPO 0806/0807 0500 FZFG BECMG 0809/0811 13005KT

SR / SS: 05:47 / 17:09 UTC (EDVE 2021-03-08)
Herzlich willkommen bei der FFG, Patrik! Viel Erfolg bei der Ausbildung und always Happy Landings! +++ Wir heißen Patrick und Fabrizio als neue Flugschüler willkommen und wünschen eine erfolgreiche Ausbildung! +++ Frederik hat seinen ersten Alleinflug absolviert! Herzlichen Glückwunsch und weiterhin Happy Landings! +++ Willkommen in der FFG, Torben! Viel Erfolg bei der Ausbildung! +++ Wir begrüßen Jens als neues Mitglied der FFG! Viel Spass und always Happy Landings! +++ Herzlich willkommen bei der FFG, Sonja! Viel Spass und always Happy Landings! +++ Wir heißen Marek und Stefan als neue Flugschüler willkommen und wünschen eine erfolgreiche Ausbildung! +++ Wir gratulieren Felix und Julian zu ihrem ersten Soloflug! Herzlichen Glückwunsch und always Happy landings! +++ Mathias hat seine PPL-Prüfung bestanden! Herzlichen Glückwunsch und weiterhin Happy Landings! +++ Wir begrüßen Karsten in den Reihen der FFG! Viel Erfolg bei der Ausbildung!

wenig -> mittel -> viel

Professionelle Piloten arbeiten mit Checkliste
Ausdrucken und abarbeiten!

Weiterlesen ...

 Zugang zur DFS. Auf dem FFG-Account sind alle erforderlichen Daten unserer Maschinen hinterlegt.

DFS Login

Hier gibt es die AIP mit allen erforderlichen Karten die im Abo der FFG liegen zum Download für unsere Mitglieder.

Charts Zugang
Letztes NOTAM EDVE
von 05.03.2021 1215Z bis 13.03.2021 2359Z
EASTERN PART OF APRON CLSD DUE TO SNOW STORAGE.

Letztes NOTAM EDCB
von 26.01.2021 2057Z bis 31.03.2021 2359Z
GRASS RWY 09/27 CLSD.

Letztes NOTAM EDBC
von 25.02.2021 1319Z bis 25.05.2021 2359Z
COCHSTEDT CTR DEACTIVATED.

Letztes NOTAM EDVM
von 06.03.2021 1702Z bis 14.05.2021 2359Z
WIP W OF RWY 07 (10M WEST OF THR07).

Letztes NOTAM EDDV
von 05.03.2021 1220Z bis 31.05.2021 2359Z
DUE TO OUTAGE OF DLE DVOR/DME THE FLW CHANGES TO SID OCCUR: GPS (FMS) RNAV OVERLAY REMAINS UNCHANGED. RWY 09L/R: WERRA 3Y/3G AND WRB 3 [more]

Letztes NOTAM EDVK
von 28.02.2021 2300Z bis 28.03.2021 2159Z
ILS CAT II RWY 27 DOWNGRADED TO CAT I.

Letztes NOTAM EDVS
von 03.02.2021 1505Z bis 03.05.2021 2359Z
AD AVBL ONLY FOR HOMEBASED PILOTS.